Latest Weather Observations for Alice Springs Airport

IDD60801

Issued at 11:31 pm CST Sunday 15 September 2019 (issued every 10 minutes, with the page automatically refreshed every 10 minutes)

About weather observations | Map of weather stations | Latest weather observations for NT | Other Formats
Station Details ID: 015590 Name: ALICE SPRINGS AIRPORT Lat: -23.80 Lon: 133.89 Height: 546.0 m
Data from the previous 72 hours. | See also: Recent months at Alice Springs Airport
Date/Time
CST
Temp
°C
App
Temp
°C
Dew
Point
°C
Rel
Hum
%
Delta-T
°C
Wind Press
QNH
hPa
Press
MSL
hPa
Rain since
9am
mm
Dir  Spd
km/h
Gust
km/h
Spd
kts
Gust
kts
15/11:30pm 16.2 13.1 -10.4 15 9.4 CALM 0 0 0 0 1020.5 1018.7 0.0
15/11:00pm 17.6 13.5 -9.3 15 9.9 NNE 6 7 3 4 1020.5 1018.7 0.0
15/10:30pm 17.8 13.6 -10.0 14 10.1 N 6 13 3 7 1020.5 1018.7 0.0
15/10:00pm 17.9 13.6 -10.9 13 10.3 NNE 6 11 3 6 1020.6 1018.8 0.0
15/09:30pm 20.3 15.5 -10.0 12 11.3 E 9 9 5 5 1020.5 1018.7 0.0
15/09:00pm 21.9 17.2 -8.7 12 11.9 NE 9 13 5 7 1020.4 1018.6 0.0
15/08:30pm 21.8 17.0 -9.9 11 12.0 ESE 9 11 5 6 1020.1 1018.3 0.0
15/08:00pm 23.3 18.2 -10.0 10 12.9 SE 11 13 6 7 1019.9 1018.0 0.0
15/07:30pm 24.2 18.7 -9.3 10 13.2 SE 13 13 7 7 1019.4 1017.6 0.0
15/07:00pm 24.9 19.4 -10.1 9 13.7 SE 13 15 7 8 1019.2 1017.4 0.0
15/06:30pm 27.9 22.8 -9.4 8 15.2 SE 11 15 6 8 1019.0 1017.2 0.0
15/06:00pm 30.1 25.1 -7.7 8 16.2 ESE 11 15 6 8 1018.8 1017.0 0.0
15/05:30pm 30.8 25.0 -8.9 7 16.8 SE 15 22 8 12 1018.7 1016.9 0.0
15/05:00pm 31.1 25.7 -8.7 7 16.9 ESE 13 22 7 12 1018.5 1016.7 0.0
15/04:30pm 31.0 25.6 -8.8 7 16.9 E 13 19 7 10 1018.4 1016.6 0.0
15/04:00pm 31.6 26.2 -8.3 7 17.2 SE 13 22 7 12 1018.5 1016.7 0.0
15/03:30pm 31.5 26.1 -8.4 7 17.1 E 13 24 7 13 1018.6 1016.8 0.0
15/03:00pm 31.1 25.7 -8.7 7 16.9 E 13 22 7 12 1018.8 1017.0 0.0
15/02:30pm 31.4 26.8 -8.5 7 17.1 SE 9 17 5 9 1019.2 1017.4 0.0
15/02:00pm 30.9 26.4 -7.1 8 16.6 ESE 9 17 5 9 1019.6 1017.8 0.0
15/01:30pm 30.6 25.1 -9.1 7 16.7 NNE 13 20 7 11 1020.1 1018.3 0.0
15/01:00pm 31.2 26.3 -6.9 8 16.7 E 11 20 6 11 1020.6 1018.8 0.0
15/12:30pm 30.3 24.2 -7.6 8 16.3 ENE 17 28 9 15 1021.1 1019.3 0.0
15/12:00pm 30.3 23.8 -7.6 8 16.3 ENE 19 33 10 18 1021.6 1019.9 0.0
15/11:30am 28.8 24.3 -7.2 9 15.4 N 9 19 5 10 1022.3 1020.5 0.0
15/11:00am 28.5 22.6 -6.0 10 15.1 ENE 17 32 9 17 1022.7 1020.9 0.0
15/10:30am 28.5 23.3 -6.0 10 15.0 ENE 13 19 7 10 1023.2 1021.5 0.0
15/10:00am 27.2 21.3 -5.8 11 14.3 NNE 17 22 9 12 1023.5 1021.8 0.0
15/09:30am 26.1 21.2 -6.6 11 13.8 ENE 11 15 6 8 1023.9 1022.1 0.0
15/09:00am 22.5 18.3 -7.3 13 12.0 ESE 7 11 4 6 1024.1 1022.3 0.0
15/08:30am 18.9 16.0 -8.3 15 10.3 CALM 0 0 0 0 1024.1 1022.3 0.0
15/08:00am 16.0 13.1 -8.3 18 9.0 CALM 0 0 0 0 1023.9 1022.1 0.0
15/07:30am 13.5 9.8 -9.0 20 7.9 NW 4 6 2 3 1023.4 1021.7 0.0
15/07:00am 10.5 5.8 -8.7 25 6.6 NW 9 11 5 6 1023.0 1021.2 0.0
15/06:30am 10.0 5.8 -8.1 27 6.2 NW 7 7 4 4 1022.7 1020.9 0.0
15/06:00am 9.7 5.4 -9.3 25 6.3 NW 7 9 4 5 1022.4 1020.6 0.0
15/05:30am 10.6 6.3 -9.1 24 6.6 NW 7 9 4 5 1022.1 1020.3 0.0
15/05:00am 10.1 5.3 -10.1 23 6.6 NW 9 9 5 5 1021.9 1020.1 0.0
15/04:30am 11.2 6.5 -9.1 23 6.9 WNW 9 9 5 5 1021.5 1019.8 0.0
15/04:00am 11.0 6.3 -9.3 23 6.9 NW 9 9 5 5 1021.3 1019.5 0.0
15/03:30am 12.4 7.7 -8.7 22 7.3 NW 9 11 5 6 1021.4 1019.6 0.0
15/03:00am 12.2 7.9 -9.4 21 7.4 WNW 7 9 4 5 1021.5 1019.8 0.0
15/02:30am 12.0 7.3 -9.0 22 7.2 WNW 9 9 5 5 1021.9 1020.1 0.0
15/02:00am 13.1 8.4 -9.3 20 7.8 WNW 9 9 5 5 1022.1 1020.3 0.0
15/01:30am 12.3 7.5 -10.0 20 7.5 WNW 9 9 5 5 1022.4 1020.6 0.0
15/01:00am 14.2 9.6 -8.4 20 8.1 WNW 9 9 5 5 1022.7 1020.9 0.0
15/12:30am 14.3 9.6 -9.0 19 8.3 W 9 11 5 6 1022.9 1021.1 0.0
15/12:00am 14.6 9.9 -8.7 19 8.3 W 9 11 5 6 1022.8 1021.0 0.0
 
Date/Time
CST
Temp
°C
App
Temp
°C
Dew
Point
°C
Rel
Hum
%
Delta-T
°C
Wind Press
QNH
hPa
Press
MSL
hPa
Rain since
9am
mm
Dir  Spd
km/h
Gust
km/h
Spd
kts
Gust
kts
14/11:30pm 15.0 11.9 -10.6 16 8.8 CALM 0 4 0 2 1023.0 1021.2 0.0
14/11:00pm 15.9 11.6 -9.1 17 9.0 S 7 9 4 5 1022.9 1021.1 0.0
14/10:30pm 16.2 13.2 -8.8 17 9.1 CALM 0 0 0 0 1022.9 1021.1 0.0
14/10:00pm 17.1 14.0 -10.6 14 9.9 CALM 0 0 0 0 1022.8 1021.0 0.0
14/09:30pm 18.7 14.4 -9.3 14 10.4 E 7 9 4 5 1022.7 1020.9 0.0
14/09:00pm 21.9 16.9 -8.7 12 11.9 E 11 13 6 7 1022.8 1021.0 0.0
14/08:30pm 23.1 18.4 -8.9 11 12.5 E 9 9 5 5 1022.5 1020.7 0.0
14/08:00pm 23.4 18.7 -8.7 11 12.7 ENE 9 9 5 5 1022.4 1020.6 0.0
14/07:30pm 24.2 19.6 -8.1 11 13.0 E 9 11 5 6 1022.2 1020.4 0.0
14/07:00pm 25.4 20.8 -8.4 10 13.7 E 9 9 5 5 1022.0 1020.2 0.0
14/06:30pm 27.2 21.8 -8.4 9 14.7 ENE 13 17 7 9 1021.9 1020.1 0.0
14/06:00pm 29.1 23.4 -7.0 9 15.5 ENE 15 19 8 10 1021.8 1020.0 0.0
14/05:30pm 29.7 23.6 -8.0 8 16.0 E 17 20 9 11 1021.6 1019.9 0.0
14/05:00pm 30.1 24.4 -7.7 8 16.2 E 15 26 8 14 1021.5 1019.8 0.0
14/04:30pm 30.6 24.1 -7.4 8 16.4 ENE 19 35 10 19 1021.5 1019.8 0.0
14/04:00pm 30.5 24.4 -7.4 8 16.4 ENE 17 26 9 14 1021.5 1019.8 0.0
14/03:30pm 30.7 24.6 -7.3 8 16.5 E 17 28 9 15 1021.6 1019.9 0.0
14/03:00pm 30.9 24.9 -7.1 8 16.5 ESE 17 28 9 15 1022.0 1020.2 0.0
14/02:30pm 30.8 24.2 -7.2 8 16.5 ESE 20 33 11 18 1022.3 1020.5 0.0
14/02:00pm 29.9 23.8 -7.9 8 16.2 ENE 17 30 9 16 1022.8 1021.0 0.0
14/01:30pm 29.7 23.0 -8.0 8 16.0 ENE 20 32 11 17 1023.4 1021.7 0.0
14/01:00pm 29.4 22.1 -6.7 9 15.7 E 24 39 13 21 1024.2 1022.4 0.0
14/12:30pm 28.7 20.5 -7.3 9 15.3 ENE 28 48 15 26 1024.8 1023.1 0.0
14/12:28pm 29.2 20.7 -6.9 9 15.6 E 30 48 16 26 1024.9 1023.2 0.0
14/12:00pm 28.8 20.4 -5.8 10 15.1 ENE 30 41 16 22 1025.2 1023.5 0.0
14/11:30am 28.6 21.3 -6.0 10 15.0 E 24 33 13 18 1025.7 1023.9 0.0
14/11:00am 27.9 20.6 -6.5 10 14.8 E 24 32 13 17 1026.0 1024.2 0.0
14/10:30am 27.4 20.6 -9.7 8 14.9 ENE 20 32 11 17 1026.4 1024.7 0.0
14/10:00am 26.7 19.5 -10.2 8 14.7 ENE 22 32 12 17 1026.6 1024.9 0.0
14/09:30am 25.3 19.8 -9.8 9 13.8 E 13 24 7 13 1026.8 1025.1 0.0
14/09:00am 22.1 19.1 -9.7 11 12.1 CALM 0 0 0 0 1026.8 1025.1 0.0
14/08:30am 19.0 15.6 -10.0 13 10.6 WNW 2 6 1 3 1026.8 1025.1 0.0
14/08:00am 16.1 11.9 -9.7 16 9.2 NW 6 7 3 4 1026.6 1024.9 0.0
14/07:30am 13.0 8.9 -9.4 20 7.7 NW 6 7 3 4 1026.3 1024.5 0.0
14/07:00am 10.1 5.3 -10.1 23 6.6 WNW 9 11 5 6 1025.9 1024.1 0.0
14/06:30am 9.1 4.3 -10.4 24 6.2 WNW 9 9 5 5 1025.4 1023.7 0.0
14/06:00am 9.6 4.5 -9.9 24 6.4 WNW 11 11 6 6 1025.0 1023.3 0.0
14/05:30am 10.0 5.2 -10.1 23 6.6 WNW 9 11 5 6 1024.7 1022.9 0.0
14/05:00am 10.4 5.7 -9.8 23 6.7 WNW 9 11 5 6 1024.5 1022.7 0.0
14/04:30am 10.4 5.3 -9.8 23 6.7 WNW 11 11 6 6 1024.2 1022.4 0.0
14/04:00am 10.2 5.4 -10.0 23 6.7 WNW 9 9 5 5 1024.2 1022.4 0.0
14/03:30am 11.1 6.4 -9.8 22 7.0 WNW 9 9 5 5 1024.1 1022.3 0.0
14/03:00am 10.8 6.4 -10.0 22 6.9 WNW 7 9 4 5 1024.2 1022.4 0.0
14/02:30am 11.5 7.1 -10.0 21 7.2 WNW 7 9 4 5 1024.5 1022.7 0.0
14/02:00am 13.4 8.7 -9.1 20 7.9 WNW 9 9 5 5 1024.6 1022.8 0.0
14/01:30am 12.4 7.6 -9.9 20 7.5 W 9 9 5 5 1024.8 1023.1 0.0
14/01:00am 12.4 8.0 -10.5 19 7.7 WSW 7 9 4 5 1025.0 1023.3 0.0
14/12:30am 13.4 9.0 -10.4 18 8.1 NW 7 7 4 4 1025.0 1023.3 0.0
14/12:00am 13.3 8.9 -10.5 18 8.0 NNW 7 7 4 4 1025.1 1023.4 0.0
 
Date/Time
CST
Temp
°C
App
Temp
°C
Dew
Point
°C
Rel
Hum
%
Delta-T
°C
Wind Press
QNH
hPa
Press
MSL
hPa
Rain since
9am
mm
Dir  Spd
km/h
Gust
km/h
Spd
kts
Gust
kts
13/11:30pm 14.1 10.9 -12.1 15 8.6 CALM 0 0 0 0 1025.2 1023.5 0.0
13/11:00pm 14.8 11.7 -10.7 16 8.8 CALM 0 0 0 0 1025.4 1023.7 0.0
13/10:30pm 16.6 13.3 -7.8 18 9.1 NE 2 7 1 4 1025.3 1023.6 0.0
13/10:00pm 16.7 12.0 -9.2 16 9.4 ESE 9 11 5 6 1025.4 1023.7 0.0
13/09:30pm 18.1 13.7 -9.8 14 10.2 ESE 7 9 4 5 1025.2 1023.5 0.0
13/09:00pm 19.1 14.0 -9.9 13 10.7 SSE 11 15 6 8 1025.0 1023.3 0.0
13/08:30pm 20.3 16.0 -9.0 13 11.1 ENE 7 7 4 4 1024.7 1022.9 0.0
13/08:00pm 22.7 18.5 -8.1 12 12.3 NE 7 9 4 5 1024.5 1022.7 0.0
13/07:30pm 24.1 19.9 -8.2 11 13.0 E 7 11 4 6 1024.1 1022.3 0.0
13/07:00pm 25.8 20.4 -8.1 10 13.9 E 13 15 7 8 1023.8 1022.0 0.0
13/06:30pm 27.6 21.5 -8.1 9 14.8 E 17 26 9 14 1023.5 1021.8 0.0
13/06:00pm 28.9 21.9 -7.1 9 15.4 E 22 32 12 17 1023.3 1021.6 0.0
13/05:30pm 29.5 21.4 -6.7 9 15.7 E 28 35 15 19 1023.1 1021.3 0.0
13/05:00pm 30.0 22.2 -7.8 8 16.2 ESE 26 33 14 18 1023.0 1021.2 0.0
13/04:30pm 30.5 22.7 -7.4 8 16.4 ESE 26 35 14 19 1022.9 1021.1 0.0
13/04:00pm 30.3 23.1 -9.3 7 16.6 E 22 35 12 19 1023.0 1021.2 0.0
13/03:30pm 30.7 23.2 -9.0 7 16.7 E 24 33 13 18 1023.1 1021.3 0.0
13/03:00pm 29.8 23.0 -9.7 7 16.3 E 20 32 11 17 1023.4 1021.7 0.0
13/02:30pm 29.9 23.1 -11.5 6 16.6 E 19 30 10 16 1023.8 1022.0 0.0
13/02:00pm 28.6 21.2 -12.4 6 16.0 E 22 33 12 18 1024.3 1022.5 0.0
13/01:30pm 28.4 21.0 -12.6 6 15.8 ENE 22 33 12 18 1024.7 1022.9 0.0
13/01:00pm 27.2 19.7 -13.4 6 15.4 E 22 32 12 17 1025.2 1023.5 0.0
13/12:30pm 27.5 20.1 -13.2 6 15.4 ENE 22 32 12 17 1025.7 1023.9 0.0
13/12:00pm 26.4 19.6 -12.1 7 14.7 E 19 28 10 15 1026.3 1024.5 0.0
13/11:30am 26.2 18.7 -14.2 6 14.8 E 22 30 12 16 1026.6 1024.9 0.0
13/11:00am 25.2 17.4 -13.0 7 14.2 E 24 32 13 17 1026.9 1025.2 0.0
13/10:30am 23.9 17.5 -12.3 8 13.4 ENE 17 26 9 14 1027.3 1025.6 0.0
13/10:00am 23.9 17.8 -12.3 8 13.5 ENE 15 19 8 10 1027.4 1025.7 0.0
13/09:30am 21.2 16.6 -12.9 9 12.1 E 7 15 4 8 1027.8 1026.0 0.0
13/09:00am 18.6 15.3 -13.6 10 10.9 CALM 0 0 0 0 1027.9 1026.1 0.0
13/08:30am 16.0 12.3 -14.4 11 9.8 W 2 6 1 3 1027.8 1026.0 0.0
13/08:00am 13.0 8.3 -14.7 13 8.5 WSW 7 7 4 4 1027.5 1025.8 0.0
13/07:30am 9.9 5.2 -15.5 15 7.3 WNW 7 7 4 4 1027.1 1025.4 0.0
13/07:00am 7.1 2.0 -16.3 17 6.3 WNW 9 9 5 5 1026.6 1024.9 0.0
13/06:30am 6.4 1.3 -16.2 18 6.0 W 9 9 5 5 1026.3 1024.5 0.0
13/06:00am 6.0 0.8 -17.2 17 6.0 W 9 9 5 5 1026.0 1024.2 0.0
13/05:30am 7.2 2.1 -16.2 17 6.3 WNW 9 9 5 5 1025.8 1024.0 0.0
13/05:00am 7.2 2.0 -16.9 16 6.4 W 9 9 5 5 1025.5 1023.8 0.0
13/04:30am 7.4 2.2 -16.7 16 6.5 WNW 9 9 5 5 1025.3 1023.6 0.0
13/04:00am 6.9 2.1 -16.4 17 6.3 NW 7 9 4 5 1025.0 1023.3 0.0
13/03:30am 7.7 2.9 -17.3 15 6.6 NW 7 9 4 5 1025.0 1023.3 0.0
13/03:00am 8.5 3.3 -17.4 14 7.0 WNW 9 9 5 5 1025.1 1023.4 0.0
13/02:30am 9.3 4.1 -16.8 14 7.2 NW 9 9 5 5 1025.1 1023.4 0.0
13/02:00am 9.2 4.0 -16.9 14 7.2 W 9 11 5 6 1025.2 1023.5 0.0
13/01:30am 8.0 2.8 -18.7 13 6.9 WNW 9 9 5 5 1025.4 1023.7 0.0
13/01:00am 8.8 4.1 -18.1 13 7.2 WNW 6 9 3 5 1025.7 1023.9 0.0
13/12:30am 9.2 5.7 -17.7 13 7.3 CALM 0 0 0 0 1025.7 1023.9 0.0
13/12:00am 11.3 7.9 -16.1 13 7.9 CALM 0 0 0 0 1025.7 1023.9 0.0

Other formats

Comma delimited format used in spreadsheet applications
http://www.bom.gov.au/fwo/IDD60801/IDD60801.94326.axf

JavaScript Object Notation format (JSON) in row-major order
http://www.bom.gov.au/fwo/IDD60801/IDD60801.94326.json

Data quality

Most of these data are generated automatically and are frequently updated. Quality checks on data are not normally performed. It is possible for incorrect values to appear. Refer to information at About Latest Weather Observations and please check the disclaimer before using these data.